createdAt,value
2018-09-14T00:02:08.883Z,48.20
2018-09-14T00:04:37.193Z,50.73
2018-09-14T00:07:05.543Z,46.10
2018-09-14T00:09:33.780Z,53.03
2018-09-14T00:12:02.064Z,51.30
2018-09-14T00:14:30.257Z,49.60
2018-09-14T00:16:58.469Z,47.93
2018-09-14T00:19:26.670Z,44.47
2018-09-14T00:21:54.969Z,46.77
2018-09-14T00:24:23.169Z,46.87
2018-09-14T00:26:51.493Z,51.47
2018-09-14T00:29:19.761Z,52.27
2018-09-14T00:31:48.073Z,51.70
2018-09-14T00:34:16.325Z,51.33
2018-09-14T00:36:44.633Z,51.10
2018-09-14T00:39:12.912Z,50.67
2018-09-14T00:41:41.122Z,50.60
2018-09-14T00:44:09.413Z,57.43
2018-09-14T00:46:37.681Z,60.03
2018-09-14T00:49:05.966Z,56.97
2018-09-14T00:51:34.278Z,57.23
2018-09-14T00:54:02.561Z,55.53
2018-09-14T00:56:30.821Z,59.83
2018-09-14T00:58:59.197Z,59.50
2018-09-14T01:01:27.429Z,60.23
2018-09-14T01:03:55.770Z,59.70
2018-09-14T01:06:24.019Z,61.43
2018-09-14T01:08:52.274Z,60.97
2018-09-14T01:11:20.569Z,62.27
2018-09-14T01:13:48.889Z,59.23
2018-09-14T01:16:17.267Z,63.83
2018-09-14T01:18:45.457Z,63.87
2018-09-14T01:21:13.733Z,63.70
2018-09-14T01:23:41.914Z,66.50
2018-09-14T01:26:11.606Z,67.07
2018-09-14T01:28:39.812Z,61.83
2018-09-14T01:31:08.030Z,59.00
2018-09-14T01:33:36.306Z,59.60
2018-09-14T01:36:09.946Z,61.97
2018-09-14T01:38:38.138Z,63.27
2018-09-14T01:41:06.874Z,61.27
2018-09-14T01:43:35.079Z,59.20
2018-09-14T01:46:03.277Z,61.03
2018-09-14T01:48:31.549Z,56.87
2018-09-14T01:50:59.765Z,61.00
2018-09-14T01:53:27.986Z,57.53
2018-09-14T01:55:56.221Z,56.20
2018-09-14T01:58:24.430Z,59.20
2018-09-14T02:00:52.625Z,63.20
2018-09-14T02:03:20.849Z,62.73
2018-09-14T02:05:49.061Z,61.00
2018-09-14T02:08:17.317Z,59.43
2018-09-14T02:10:45.498Z,56.70
2018-09-14T02:13:13.759Z,54.50
2018-09-14T02:15:41.937Z,55.70
2018-09-14T02:18:10.141Z,58.93
2018-09-14T02:20:38.382Z,59.10
2018-09-14T02:23:06.610Z,51.17
2018-09-14T02:25:34.845Z,55.80
2018-09-14T02:28:03.073Z,51.67
2018-09-14T02:30:31.414Z,54.60
2018-09-14T02:32:59.613Z,56.47
2018-09-14T02:35:27.798Z,54.57
2018-09-14T02:37:55.993Z,53.57
2018-09-14T02:40:24.299Z,55.80
2018-09-14T02:42:52.498Z,58.03
2018-09-14T02:45:20.738Z,51.33
2018-09-14T02:47:49.029Z,53.03
2018-09-14T02:50:17.244Z,56.00
2018-09-14T02:52:45.549Z,56.70
2018-09-14T02:55:13.822Z,55.57
2018-09-14T02:57:42.115Z,55.27
2018-09-14T03:00:10.590Z,59.53
2018-09-14T03:02:38.810Z,55.07
2018-09-14T03:05:07.090Z,55.73
2018-09-14T03:07:35.402Z,54.37
2018-09-14T03:10:03.731Z,57.87
2018-09-14T03:12:31.935Z,59.50
2018-09-14T03:15:00.262Z,61.90
2018-09-14T03:17:28.529Z,58.07
2018-09-14T03:19:56.713Z,63.07
2018-09-14T03:22:25.025Z,57.17
2018-09-14T03:24:54.164Z,58.20
2018-09-14T03:27:22.372Z,55.37
2018-09-14T03:29:50.573Z,58.33
2018-09-14T03:32:18.831Z,57.53
2018-09-14T03:34:47.097Z,60.50
2018-09-14T03:37:15.302Z,60.10
2018-09-14T03:39:43.533Z,52.83
2018-09-14T03:42:11.766Z,58.17
2018-09-14T03:44:41.162Z,58.30
2018-09-14T03:47:09.393Z,53.30
2018-09-14T03:49:37.610Z,57.63
2018-09-14T03:52:05.909Z,52.80
2018-09-14T03:54:34.351Z,55.33
2018-09-14T03:57:05.332Z,52.27
2018-09-14T03:59:35.616Z,53.03
2018-09-14T04:02:04.361Z,54.87
2018-09-14T04:04:32.557Z,57.47
2018-09-14T04:07:01.266Z,56.37
2018-09-14T04:09:29.532Z,54.03
2018-09-14T04:11:58.547Z,54.87
2018-09-14T04:14:26.841Z,55.83
2018-09-14T04:16:55.578Z,55.10
2018-09-14T04:19:23.781Z,48.77
2018-09-14T04:21:52.013Z,49.50
2018-09-14T04:24:20.520Z,51.40
2018-09-14T04:26:48.841Z,50.87
2018-09-14T04:29:17.117Z,53.80
2018-09-14T04:31:46.130Z,53.77
2018-09-14T04:34:14.335Z,57.97
2018-09-14T04:36:42.638Z,57.30
2018-09-14T04:39:11.342Z,60.77
2018-09-14T04:41:39.769Z,58.27
2018-09-14T04:44:07.990Z,60.77
2018-09-14T04:46:36.274Z,58.70
2018-09-14T04:49:04.585Z,61.43
2018-09-14T04:51:32.915Z,56.97
2018-09-14T04:54:01.097Z,58.10
2018-09-14T04:56:29.301Z,60.83
2018-09-14T04:58:57.494Z,58.10
2018-09-14T05:01:25.880Z,58.23
2018-09-14T05:03:54.103Z,52.50
2018-09-14T05:06:22.311Z,55.93
2018-09-14T05:08:50.598Z,58.37
2018-09-14T05:11:18.859Z,54.97
2018-09-14T05:13:47.386Z,57.73
2018-09-14T05:16:15.774Z,57.30
2018-09-14T05:18:43.998Z,58.37
2018-09-14T05:21:12.618Z,59.33
2018-09-14T05:23:40.940Z,59.03
2018-09-14T05:26:09.162Z,62.40
2018-09-14T05:28:37.377Z,60.00
2018-09-14T05:31:05.618Z,59.20
2018-09-14T05:33:33.830Z,54.80
2018-09-14T05:36:02.046Z,53.67
2018-09-14T05:38:30.246Z,58.73
2018-09-14T05:40:58.516Z,58.53
2018-09-14T05:43:26.711Z,56.90
2018-09-14T05:45:54.952Z,59.07
2018-09-14T05:48:23.145Z,62.00
2018-09-14T05:50:51.378Z,53.10
2018-09-14T05:53:19.577Z,56.70
2018-09-14T05:55:47.784Z,59.10
2018-09-14T05:58:16.089Z,60.07
2018-09-14T06:00:44.425Z,62.80
2018-09-14T06:03:12.645Z,55.63
2018-09-14T06:05:40.893Z,60.50
2018-09-14T06:08:09.101Z,57.43
2018-09-14T06:10:37.335Z,54.30
2018-09-14T06:13:05.692Z,54.00
2018-09-14T06:15:33.907Z,53.30
2018-09-14T06:18:02.157Z,56.87
2018-09-14T06:20:30.434Z,55.53
2018-09-14T06:22:58.684Z,53.53
2018-09-14T06:25:26.891Z,60.37
2018-09-14T06:27:55.131Z,56.30
2018-09-14T06:30:23.362Z,55.90
2018-09-14T06:32:51.526Z,57.67
2018-09-14T06:35:19.765Z,54.47
2018-09-14T06:37:47.986Z,61.83
2018-09-14T06:40:16.196Z,53.60
2018-09-14T06:42:44.397Z,58.87
2018-09-14T06:45:12.640Z,55.13
2018-09-14T06:47:40.858Z,57.60
2018-09-14T06:50:09.103Z,52.10
2018-09-14T06:52:37.301Z,50.87
2018-09-14T06:55:05.514Z,49.47
2018-09-14T06:57:33.802Z,50.43
2018-09-14T07:00:02.131Z,45.60
2018-09-14T07:02:30.362Z,48.37
2018-09-14T07:04:58.861Z,47.43
2018-09-14T07:07:27.241Z,42.37
2018-09-14T07:09:55.446Z,44.07
2018-09-14T07:12:23.685Z,45.97
2018-09-14T07:14:51.915Z,50.83
2018-09-14T07:17:20.117Z,49.60
2018-09-14T07:19:48.351Z,51.00
2018-09-14T07:22:16.670Z,47.97
2018-09-14T07:24:44.891Z,48.50
2018-09-14T07:27:13.264Z,49.00
2018-09-14T07:29:41.561Z,49.97
2018-09-14T07:32:09.733Z,50.43
2018-09-14T07:34:37.953Z,47.90
2018-09-14T07:37:06.257Z,48.37
2018-09-14T07:39:34.485Z,47.37
2018-09-14T07:42:02.688Z,45.67
2018-09-14T07:44:30.896Z,47.70
2018-09-14T07:46:59.101Z,45.77
2018-09-14T07:49:27.304Z,46.47
2018-09-14T07:51:55.507Z,46.60
2018-09-14T07:54:23.713Z,49.43
2018-09-14T07:56:51.953Z,46.53
2018-09-14T07:59:20.195Z,49.37
2018-09-14T08:01:48.586Z,46.07
2018-09-14T08:04:16.818Z,44.80
2018-09-14T08:06:45.107Z,42.87
2018-09-14T08:09:14.295Z,42.97
2018-09-14T08:11:42.957Z,40.00
2018-09-14T08:14:11.711Z,38.37
2018-09-14T08:16:39.974Z,43.10
2018-09-14T08:19:08.187Z,50.23
2018-09-14T08:21:36.929Z,53.30
2018-09-14T08:24:05.038Z,46.60
2018-09-14T08:26:33.303Z,50.80
2018-09-14T08:29:01.530Z,47.20
2018-09-14T08:31:30.746Z,46.50
2018-09-14T08:33:58.942Z,48.40
2018-09-14T08:36:27.149Z,46.40
2018-09-14T08:38:55.357Z,48.40
2018-09-14T08:41:23.627Z,44.47
2018-09-14T08:43:51.850Z,46.17
2018-09-14T08:46:20.046Z,47.10
2018-09-14T08:48:48.290Z,45.63
2018-09-14T08:51:16.801Z,43.57
2018-09-14T08:53:45.158Z,43.67
2018-09-14T08:56:13.293Z,42.67
2018-09-14T08:58:41.506Z,43.30
2018-09-14T09:01:09.701Z,42.00
2018-09-14T09:03:37.918Z,41.70
2018-09-14T09:06:06.197Z,40.37
2018-09-14T09:08:34.406Z,40.37
2018-09-14T09:11:02.625Z,37.70
2018-09-14T09:13:30.838Z,40.50
2018-09-14T09:15:59.058Z,40.57
2018-09-14T09:18:27.278Z,39.80
2018-09-14T09:20:55.517Z,39.00
2018-09-14T09:23:23.801Z,37.27
2018-09-14T09:25:51.957Z,35.53
2018-09-14T09:28:20.165Z,36.20
2018-09-14T09:30:48.458Z,34.40
2018-09-14T09:33:16.683Z,38.20
2018-09-14T09:35:44.902Z,39.43
2018-09-14T09:38:13.138Z,36.20
2018-09-14T09:40:41.426Z,35.77
2018-09-14T09:43:09.748Z,36.67
2018-09-14T09:45:37.947Z,36.60
2018-09-14T09:48:06.265Z,37.97
2018-09-14T09:50:34.503Z,33.90
2018-09-14T09:53:02.821Z,34.00
2018-09-14T09:55:31.065Z,32.60
2018-09-14T09:57:59.501Z,36.10
2018-09-14T10:00:33.034Z,32.73
2018-09-14T10:03:06.535Z,34.93
2018-09-14T10:05:40.015Z,35.20
2018-09-14T10:08:08.270Z,38.27
2018-09-14T10:10:36.518Z,39.90
2018-09-14T10:13:04.783Z,40.20
2018-09-14T10:15:33.003Z,38.20
2018-09-14T10:18:01.247Z,36.40
2018-09-14T10:20:29.473Z,39.50
2018-09-14T10:22:57.701Z,38.30
2018-09-14T10:25:26.052Z,39.77
2018-09-14T10:27:54.284Z,40.40
2018-09-14T10:30:22.559Z,41.47
2018-09-14T10:32:50.779Z,39.90
2018-09-14T10:35:19.014Z,38.90
2018-09-14T10:37:47.227Z,39.00
2018-09-14T10:40:15.468Z,42.10
2018-09-14T10:42:43.760Z,39.93
2018-09-14T10:45:12.018Z,41.47
2018-09-14T10:47:40.299Z,43.60
2018-09-14T10:50:08.585Z,42.63
2018-09-14T10:52:36.770Z,41.93
2018-09-14T10:55:05.026Z,45.40
2018-09-14T10:57:33.250Z,38.07
2018-09-14T11:00:01.487Z,36.20
2018-09-14T11:02:29.705Z,36.93
2018-09-14T11:04:57.954Z,36.30
2018-09-14T11:07:26.254Z,33.73
2018-09-14T11:09:54.486Z,33.20
2018-09-14T11:12:22.732Z,31.23
2018-09-14T11:14:50.963Z,30.07
2018-09-14T11:17:19.177Z,28.60
2018-09-14T11:19:47.422Z,28.20
2018-09-14T11:22:15.717Z,30.00
2018-09-14T11:24:44.185Z,29.77
2018-09-14T11:27:12.301Z,29.10
2018-09-14T11:29:40.587Z,27.83
2018-09-14T11:32:08.831Z,29.93
2018-09-14T11:34:37.069Z,31.80
2018-09-14T11:37:05.647Z,30.00
2018-09-14T11:39:33.818Z,31.00
2018-09-14T11:42:02.050Z,28.37
2018-09-14T11:44:30.396Z,29.90
2018-09-14T11:46:58.529Z,29.50
2018-09-14T11:49:26.759Z,27.13
2018-09-14T11:51:54.974Z,28.80
2018-09-14T11:54:23.265Z,27.97
2018-09-14T11:56:51.424Z,27.13
2018-09-14T11:59:19.685Z,27.87
2018-09-14T12:01:47.924Z,24.73
2018-09-14T12:04:16.219Z,28.50
2018-09-14T12:06:44.381Z,29.83
2018-09-14T12:09:12.953Z,33.20
2018-09-14T12:11:41.723Z,28.70
2018-09-14T12:14:10.283Z,27.50
2018-09-14T12:16:38.470Z,30.17
2018-09-14T12:19:06.813Z,29.90
2018-09-14T12:21:35.018Z,30.40
2018-09-14T12:24:03.222Z,31.27
2018-09-14T12:26:31.433Z,26.80
2018-09-14T12:28:59.660Z,29.10
2018-09-14T12:31:27.879Z,26.77
2018-09-14T12:33:56.114Z,27.07
2018-09-14T12:36:24.373Z,27.53
2018-09-14T12:38:52.593Z,26.77
2018-09-14T12:41:20.858Z,27.60
2018-09-14T12:43:49.096Z,28.07
2018-09-14T12:46:17.287Z,26.40
2018-09-14T12:48:45.526Z,26.87
2018-09-14T12:51:13.762Z,28.90
2018-09-14T12:53:42.115Z,28.27
2018-09-14T12:56:10.435Z,27.00
2018-09-14T12:58:38.637Z,26.00
2018-09-14T13:01:06.869Z,28.63
2018-09-14T13:03:37.452Z,25.83
2018-09-14T13:06:05.650Z,24.97
2018-09-14T13:08:33.877Z,24.97
2018-09-14T13:11:02.085Z,26.40
2018-09-14T13:13:30.301Z,25.40
2018-09-14T13:15:58.505Z,24.03
2018-09-14T13:18:26.745Z,23.93
2018-09-14T13:20:54.949Z,22.10
2018-09-14T13:23:23.165Z,22.27
2018-09-14T13:25:51.373Z,22.07
2018-09-14T13:28:19.625Z,22.90
2018-09-14T13:30:47.831Z,22.07
2018-09-14T13:33:16.046Z,21.87
2018-09-14T13:35:44.258Z,18.73
2018-09-14T13:38:12.464Z,21.03
2018-09-14T13:40:40.678Z,22.10
2018-09-14T13:43:08.889Z,20.70
2018-09-14T13:45:37.109Z,18.87
2018-09-14T13:48:05.310Z,17.13
2018-09-14T13:50:33.537Z,19.57
2018-09-14T13:53:01.790Z,17.90
2018-09-14T13:55:30.014Z,18.30
2018-09-14T13:57:58.346Z,16.37
2018-09-14T14:00:26.546Z,16.50
2018-09-14T14:02:54.801Z,20.57
2018-09-14T14:05:23.102Z,20.50
2018-09-14T14:07:51.305Z,23.67
2018-09-14T14:10:19.605Z,21.20
2018-09-14T14:12:47.783Z,22.90
2018-09-14T14:15:16.023Z,20.00
2018-09-14T14:17:44.302Z,21.83
2018-09-14T14:20:12.649Z,21.10
2018-09-14T14:22:40.850Z,24.00
2018-09-14T14:25:09.204Z,24.60
2018-09-14T14:27:37.412Z,22.27
2018-09-14T14:30:05.626Z,29.07
2018-09-14T14:32:33.826Z,24.80
2018-09-14T14:35:02.034Z,25.07
2018-09-14T14:37:30.353Z,29.93
2018-09-14T14:39:58.639Z,30.30
2018-09-14T14:42:26.855Z,29.90
2018-09-14T14:44:55.275Z,28.47
2018-09-14T14:47:23.501Z,31.63
2018-09-14T14:49:51.753Z,32.23
2018-09-14T14:52:20.043Z,30.70
2018-09-14T14:54:48.276Z,32.03
2018-09-14T14:57:16.517Z,31.27
2018-09-14T14:59:44.757Z,31.70
2018-09-14T15:02:12.925Z,29.27
2018-09-14T15:04:41.149Z,31.43
2018-09-14T15:07:09.445Z,30.60
2018-09-14T15:09:37.662Z,29.83
2018-09-14T15:12:05.877Z,29.13
2018-09-14T15:14:34.181Z,29.57
2018-09-14T15:17:02.381Z,34.57
2018-09-14T15:19:30.659Z,30.07
2018-09-14T15:21:58.857Z,28.60
2018-09-14T15:24:27.070Z,29.70
2018-09-14T15:26:55.302Z,27.30
2018-09-14T15:29:23.506Z,30.17
2018-09-14T15:31:51.733Z,28.27
2018-09-14T15:34:20.094Z,28.67
2018-09-14T15:36:48.309Z,29.10
2018-09-14T15:39:16.551Z,32.20
2018-09-14T15:41:44.737Z,29.13
2018-09-14T15:44:12.973Z,28.67
2018-09-14T15:46:42.966Z,28.27
2018-09-14T15:49:11.177Z,27.33
2018-09-14T15:51:39.423Z,28.13
2018-09-14T15:54:07.833Z,38.83
2018-09-14T15:56:36.030Z,27.60
2018-09-14T15:59:04.351Z,30.03
2018-09-14T16:01:32.550Z,25.93
2018-09-14T16:04:00.771Z,26.60
2018-09-14T16:06:28.989Z,25.53
2018-09-14T16:08:57.230Z,24.40
2018-09-14T16:11:25.602Z,26.43
2018-09-14T16:13:53.882Z,25.10
2018-09-14T16:16:22.089Z,25.77
2018-09-14T16:18:50.339Z,23.80
2018-09-14T16:21:18.505Z,22.07
2018-09-14T16:23:46.773Z,23.00
2018-09-14T16:26:15.069Z,24.97
2018-09-14T16:28:43.309Z,21.87
2018-09-14T16:31:11.502Z,26.37
2018-09-14T16:33:39.758Z,23.43
2018-09-14T16:36:07.951Z,20.50
2018-09-14T16:38:39.058Z,23.87
2018-09-14T16:41:07.391Z,21.63
2018-09-14T16:43:35.595Z,23.00
2018-09-14T16:46:03.918Z,22.00
2018-09-14T16:48:32.161Z,23.73
2018-09-14T16:51:00.461Z,24.40
2018-09-14T16:53:28.733Z,22.73
2018-09-14T16:55:56.937Z,26.20
2018-09-14T16:58:25.149Z,22.13
2018-09-14T17:00:53.437Z,24.50
2018-09-14T17:03:21.699Z,25.37
2018-09-14T17:05:49.841Z,21.13
2018-09-14T17:08:18.127Z,25.73
2018-09-14T17:10:46.366Z,22.60
2018-09-14T17:13:14.569Z,22.93
2018-09-14T17:15:42.765Z,22.10
2018-09-14T17:18:10.970Z,24.40
2018-09-14T17:20:39.166Z,23.37
2018-09-14T17:23:12.365Z,21.40
2018-09-14T17:25:55.586Z,23.97
2018-09-14T17:28:23.926Z,24.57
2018-09-14T17:30:52.124Z,23.13
2018-09-14T17:33:20.345Z,25.60
2018-09-14T17:35:48.537Z,22.50
2018-09-14T17:38:16.809Z,24.70
2018-09-14T17:41:28.194Z,23.63
2018-09-14T17:43:56.585Z,22.90
2018-09-14T17:46:24.826Z,22.73
2018-09-14T17:48:53.030Z,24.97
2018-09-14T17:51:21.256Z,22.17
2018-09-14T17:53:49.493Z,21.83
2018-09-14T17:56:17.734Z,25.27
2018-09-14T17:58:46.009Z,24.27
2018-09-14T18:01:14.228Z,23.93
2018-09-14T18:03:42.447Z,27.90
2018-09-14T18:06:10.641Z,25.20
2018-09-14T18:08:38.842Z,25.60
2018-09-14T18:11:07.109Z,22.87
2018-09-14T18:13:35.347Z,25.00
2018-09-14T18:16:03.627Z,22.80
2018-09-14T18:18:31.925Z,24.00
2018-09-14T18:21:00.157Z,22.10
2018-09-14T18:23:28.385Z,21.67
2018-09-14T18:25:56.590Z,19.27
2018-09-14T18:28:24.810Z,18.93
2018-09-14T18:30:53.022Z,18.03
2018-09-14T18:33:21.237Z,18.50
2018-09-14T18:35:49.440Z,17.07
2018-09-14T18:38:17.661Z,18.50
2018-09-14T18:40:45.845Z,19.10
2018-09-14T18:43:14.116Z,19.77
2018-09-14T18:45:42.321Z,16.53
2018-09-14T18:48:10.551Z,16.77
2018-09-14T18:50:38.906Z,16.73
2018-09-14T18:53:07.225Z,19.20
2018-09-14T18:55:35.466Z,19.10
2018-09-14T18:58:03.735Z,16.90
2018-09-14T19:00:32.030Z,17.67
2018-09-14T19:03:00.352Z,17.50
2018-09-14T19:05:28.585Z,18.47
2018-09-14T19:07:56.858Z,18.67
2018-09-14T19:10:25.287Z,17.20
2018-09-14T19:12:53.582Z,20.00
2018-09-14T19:15:21.933Z,17.80
2018-09-14T19:17:50.386Z,18.03
2018-09-14T19:20:18.610Z,18.00
2018-09-14T19:22:46.997Z,17.07
2018-09-14T19:25:15.300Z,17.30
2018-09-14T19:27:43.578Z,17.30
2018-09-14T19:30:12.030Z,18.73
2018-09-14T19:32:40.277Z,16.80
2018-09-14T19:35:08.573Z,16.80
2018-09-14T19:37:36.786Z,17.10
2018-09-14T19:40:05.040Z,18.10
2018-09-14T19:42:33.366Z,19.20
2018-09-14T19:45:01.570Z,19.17
2018-09-14T19:47:29.793Z,19.10
2018-09-14T19:49:58.132Z,19.50
2018-09-14T19:52:26.369Z,18.63
2018-09-14T19:54:54.754Z,21.37
2018-09-14T19:57:23.109Z,19.13
2018-09-14T19:59:51.609Z,20.03
2018-09-14T20:02:19.845Z,20.33
2018-09-14T20:04:48.247Z,21.90
2018-09-14T20:07:16.534Z,21.63
2018-09-14T20:09:44.789Z,19.47
2018-09-14T20:12:13.102Z,20.87
2018-09-14T20:14:41.377Z,22.27
2018-09-14T20:17:09.734Z,22.73
2018-09-14T20:19:37.960Z,20.43
2018-09-14T20:22:06.674Z,20.83
2018-09-14T20:24:34.958Z,22.00
2018-09-14T20:27:03.257Z,21.30
2018-09-14T20:29:31.511Z,22.33
2018-09-14T20:31:59.821Z,22.83
2018-09-14T20:34:28.137Z,21.90
2018-09-14T20:36:56.425Z,19.70
2018-09-14T20:39:24.706Z,19.83
2018-09-14T20:41:52.953Z,21.90
2018-09-14T20:44:21.298Z,20.93
2018-09-14T20:46:49.653Z,21.70
2018-09-14T20:49:17.866Z,20.43
2018-09-14T20:51:46.224Z,18.70
2018-09-14T20:54:14.313Z,22.43
2018-09-14T20:56:42.555Z,22.33
2018-09-14T20:59:10.786Z,21.03
2018-09-14T21:01:39.101Z,21.70
2018-09-14T21:04:07.612Z,19.67
2018-09-14T21:06:35.809Z,21.60
2018-09-14T21:09:05.506Z,21.87
2018-09-14T21:11:33.829Z,20.47
2018-09-14T21:14:02.021Z,20.20
2018-09-14T21:16:30.270Z,18.83
2018-09-14T21:18:58.496Z,20.80
2018-09-14T21:21:26.757Z,22.00
2018-09-14T21:23:55.063Z,22.50
2018-09-14T21:26:23.353Z,22.00
2018-09-14T21:28:51.641Z,19.77
2018-09-14T21:31:19.986Z,19.67
2018-09-14T21:33:48.179Z,23.40
2018-09-14T21:36:16.507Z,25.90
2018-09-14T21:38:44.777Z,31.60
2018-09-14T21:41:13.039Z,33.40
2018-09-14T21:43:41.333Z,30.63
2018-09-14T21:46:09.610Z,30.50
2018-09-14T21:48:37.925Z,26.53
2018-09-14T21:51:06.386Z,27.63
2018-09-14T21:53:34.745Z,23.93
2018-09-14T21:56:02.918Z,23.47
2018-09-14T21:58:31.169Z,21.43
2018-09-14T22:01:04.898Z,22.57
2018-09-14T22:03:33.177Z,21.47
2018-09-14T22:06:01.456Z,21.63
2018-09-14T22:08:29.745Z,22.30
2018-09-14T22:10:58.027Z,20.83
2018-09-14T22:13:26.389Z,22.17
2018-09-14T22:15:54.610Z,22.47
2018-09-14T22:18:22.921Z,21.00
2018-09-14T22:20:51.241Z,19.63
2018-09-14T22:23:19.508Z,20.20
2018-09-14T22:25:47.781Z,19.70
2018-09-14T22:28:16.080Z,21.70
2018-09-14T22:30:44.344Z,21.23
2018-09-14T22:33:12.633Z,24.23
2018-09-14T22:35:40.929Z,22.27
2018-09-14T22:38:09.138Z,23.23
2018-09-14T22:40:37.336Z,22.67
2018-09-14T22:43:05.622Z,23.83
2018-09-14T22:48:12.533Z,22.30
2018-09-14T22:50:40.821Z,22.30
2018-09-14T22:53:09.085Z,20.20
2018-09-14T22:55:37.370Z,23.57
2018-09-14T22:58:07.263Z,21.77
2018-09-14T23:00:40.962Z,20.80
2018-09-14T23:03:09.238Z,20.57
2018-09-14T23:05:37.493Z,23.43
2018-09-14T23:08:05.845Z,20.90
2018-09-14T23:10:34.087Z,20.20
2018-09-14T23:13:02.400Z,20.23
2018-09-14T23:15:30.665Z,28.33
2018-09-14T23:17:59.120Z,21.50
2018-09-14T23:20:27.318Z,21.30
2018-09-14T23:22:55.629Z,22.17
2018-09-14T23:25:23.917Z,20.17
2018-09-14T23:27:52.441Z,20.23
2018-09-14T23:30:20.682Z,20.40
2018-09-14T23:32:48.997Z,20.30
2018-09-14T23:35:17.254Z,19.30
2018-09-14T23:37:45.560Z,18.90
2018-09-14T23:40:13.840Z,19.20
2018-09-14T23:42:42.151Z,18.90
2018-09-14T23:45:10.429Z,19.97
2018-09-14T23:47:38.713Z,19.77
2018-09-14T23:50:06.925Z,19.80
2018-09-14T23:52:35.166Z,18.33
2018-09-14T23:55:03.597Z,18.03
2018-09-14T23:57:31.846Z,18.53
